Latest Weather Observations for Lochington

IDQ60801

Issued at 6:32 pm EST Sunday 2 August 2015 (issued every 30 minutes, with the page automatically refreshed every 10 minutes)

About weather observations | Map of weather stations | Latest weather observations for QLD | Other Formats
Station Details ID: 035139 Name: LOCHINGTON Lat: -23.94 Lon: 147.53 Height: 267.19 m
Data from the previous 72 hours. | See also: Recent months at Lochington
Date/Time
EST
Temp
°C
App
Temp
°C
Dew
Point
Rel
Hum
%
Delta-T
°C
Wind Press
QNH
hPa
Press
MSL
hPa
Rain
since 9 am
mm
Dir
 
Spd
km/h
Gust
km/h
Spd
kts
Gust
kts
02/06:30pm 21.6 19.4 5.5 35 8.1 NNE 6 6 3 3 1019.0 1018.5 0.0
02/06:00pm 21.8 19.8 4.4 32 8.6 NNE 4 6 2 3 1018.9 1018.4 0.0
02/05:30pm 24.3 22.0 4.6 28 9.9 N 6 7 3 4 1018.8 1018.3 0.0
02/05:00pm 25.4 22.0 4.0 25 10.7 N 11 19 6 10 1018.6 1018.1 0.0
02/04:30pm 26.2 23.4 5.2 26 10.8 N 9 15 5 8 1018.6 1018.1 0.0
02/04:00pm 26.0 21.8 3.9 24 11.1 N 15 20 8 11 1018.5 1018.0 0.0
02/03:30pm 26.4 23.7 5.4 26 10.9 NNE 9 24 5 13 1018.6 1018.1 0.0
02/03:00pm 26.3 23.0 6.4 28 10.5 N 13 22 7 12 1018.9 1018.4 0.0
02/02:30pm 26.0 22.9 5.6 27 10.6 NE 11 24 6 13 1019.4 1018.9 0.0
02/02:00pm 25.6 23.0 6.3 29 10.1 NE 9 17 5 9 1019.8 1019.3 0.0
02/01:30pm 25.1 22.7 6.8 31 9.7 NNE 9 19 5 10 1020.3 1019.7 0.0
02/01:00pm 24.3 21.1 7.0 33 9.1 N 13 20 7 11 1020.9 1020.4 0.0
02/12:30pm 24.0 20.1 7.2 34 8.9 NE 17 24 9 13 1021.5 1021.0 0.0
02/12:00pm 23.3 20.4 8.2 38 8.1 NNE 13 20 7 11 1022.1 1021.6 0.0
02/11:30am 22.7 19.6 8.8 41 7.5 NNE 15 20 8 11 1022.6 1022.1 0.0
02/11:00am 21.4 18.5 9.6 47 6.4 NNE 15 24 8 13 1023.2 1022.7 0.0
02/10:30am 20.8 17.5 9.7 49 6.0 NNE 17 28 9 15 1023.5 1023.0 0.0
02/10:00am 19.2 16.4 9.9 55 5.0 NNE 15 24 8 13 1023.9 1023.5 0.0
02/09:30am 17.4 15.3 9.6 60 4.1 NE 11 17 6 9 1024.2 1023.7 0.0
02/09:00am 16.4 14.6 9.6 64 3.6 NE 9 13 5 7 1023.9 1023.5 0.0
02/08:30am 15.1 13.6 9.2 68 3.1 ENE 7 11 4 6 1023.6 1023.2 0.0
02/08:00am 12.7 11.5 8.2 74 2.2 E 4 6 2 3 1023.3 1022.8 0.0
02/07:59am 12.6 11.5 8.3 75 2.2 E 4 6 2 3 1023.2 1022.7 0.0
02/07:30am 7.6 5.8 5.2 85 1.1 E 4 7 2 4 1022.7 1022.2 0.0
02/07:00am 5.2 3.6 2.2 81 1.2 CALM 0 0 0 0 1022.5 1022.0 0.0
02/06:30am 6.2 3.6 3.4 82 1.2 E 6 9 3 5 1022.0 1021.5 0.0
02/06:00am 6.0 3.4 3.2 82 1.2 ENE 6 9 3 5 1021.8 1021.3 0.0
02/05:30am 5.9 3.2 2.5 79 1.4 E 6 7 3 4 1021.6 1021.1 0.0
02/05:00am 5.9 3.9 2.2 77 1.5 E 2 4 1 2 1021.5 1021.0 0.0
02/04:30am 6.6 3.9 2.7 76 1.6 E 6 6 3 3 1021.4 1020.9 0.0
02/04:00am 6.7 4.4 2.8 76 1.6 E 4 6 2 3 1021.4 1020.9 0.0
02/03:30am 7.3 5.8 3.2 75 1.8 CALM 0 0 0 0 1021.5 1021.0 0.0
02/03:00am 8.0 6.7 4.0 76 1.8 CALM 0 0 0 0 1021.5 1021.0 0.0
02/02:30am 7.5 6.0 3.2 74 1.8 CALM 0 0 0 0 1021.5 1021.0 0.0
02/02:00am 8.1 6.6 3.2 71 2.1 CALM 0 0 0 0 1021.4 1020.9 0.0
02/01:30am 8.1 6.3 3.2 71 2.1 E 2 4 1 2 1021.7 1021.2 0.0
02/01:00am 9.3 8.0 3.9 69 2.4 CALM 0 0 0 0 1021.8 1021.3 0.0
02/12:30am 9.6 7.9 3.8 67 2.6 WNW 2 4 1 2 1021.8 1021.3 0.0
02/12:00am 9.8 7.7 3.8 66 2.7 WNW 4 6 2 3 1022.0 1021.5 0.0
 
Date/Time
EST
Temp
°C
App
Temp
°C
Dew
Point
Rel
Hum
%
Delta-T
°C
Wind Press
QNH
hPa
Press
MSL
hPa
Rain
since 9 am
mm
Dir
 
Spd
km/h
Gust
km/h
Spd
kts
Gust
kts
01/11:30pm 9.7 7.5 3.2 64 2.9 NW 4 6 2 3 1021.9 1021.4 0.0
01/11:00pm 10.4 8.7 3.9 64 2.9 NE 2 4 1 2 1021.7 1021.2 0.0
01/10:30pm 11.2 9.1 4.0 61 3.3 ENE 4 6 2 3 1021.6 1021.1 0.0
01/10:00pm 11.5 10.2 4.3 61 3.3 CALM 0 0 0 0 1021.5 1021.0 0.0
01/09:30pm 12.3 10.7 4.3 58 3.7 ENE 2 2 1 1 1021.4 1020.9 0.0
01/09:00pm 13.5 11.3 3.6 51 4.5 E 4 6 2 3 1021.4 1020.9 0.0
01/08:30pm 16.9 14.6 4.9 45 5.8 E 6 6 3 3 1021.3 1020.8 0.0
01/08:00pm 18.3 16.0 5.5 43 6.3 E 7 7 4 4 1021.2 1020.7 0.0
01/07:30pm 18.4 16.2 5.3 42 6.4 E 6 6 3 3 1020.9 1020.4 0.0
01/07:00pm 19.3 16.8 5.0 39 7.0 ENE 7 9 4 5 1020.5 1020.0 0.0
01/06:30pm 19.4 17.1 4.7 38 7.2 E 6 7 3 4 1020.2 1019.6 0.0
01/06:00pm 21.3 18.4 4.4 33 8.3 ENE 9 9 5 5 1019.8 1019.3 0.0
01/05:30pm 22.8 19.8 4.3 30 9.2 ENE 9 13 5 7 1019.5 1019.0 0.0
01/05:00pm 24.3 20.5 4.1 27 10.1 ENE 13 20 7 11 1019.2 1018.7 0.0
01/04:30pm 24.9 21.6 4.6 27 10.3 ENE 11 20 6 11 1019.1 1018.6 0.0
01/04:00pm 25.6 22.3 4.7 26 10.6 ENE 11 24 6 13 1019.3 1018.8 0.0
01/03:30pm 25.3 22.2 5.5 28 10.2 ENE 11 26 6 14 1019.3 1018.8 0.0
01/03:00pm 25.3 22.1 5.0 27 10.4 E 11 19 6 10 1019.6 1019.1 0.0
01/02:30pm 26.2 22.8 4.1 24 11.2 ENE 11 24 6 13 1019.9 1019.4 0.0
01/02:00pm 25.3 21.0 3.3 24 10.9 NNE 15 26 8 14 1020.3 1019.7 0.0
01/01:30pm 24.9 21.8 5.7 29 9.9 NE 11 24 6 13 1020.8 1020.3 0.0
01/01:00pm 24.3 20.9 6.1 31 9.4 NE 13 24 7 13 1021.3 1020.8 0.0
01/12:30pm 23.9 20.8 7.1 34 8.9 ENE 13 24 7 13 1022.0 1021.5 0.0
01/12:00pm 22.9 19.6 6.6 35 8.4 NNE 13 30 7 16 1022.6 1022.1 0.0
01/11:30am 22.9 19.8 7.4 37 8.2 NE 13 24 7 13 1023.2 1022.7 0.0
01/11:00am 21.9 19.1 8.4 42 7.2 NE 13 20 7 11 1023.7 1023.3 0.0
01/10:30am 20.2 17.6 7.9 45 6.4 NE 11 17 6 9 1024.2 1023.7 0.0
01/10:00am 19.7 17.9 7.8 46 6.2 NE 7 13 4 7 1024.2 1023.7 0.0
01/09:30am 17.8 15.6 6.3 47 5.7 E 7 13 4 7 1024.2 1023.9 0.0
01/09:00am 16.0 14.4 6.4 53 4.7 E 4 6 2 3 1024.1 1023.8 0.0
01/08:30am 12.2 11.4 6.3 67 2.8 CALM 0 0 0 0 1023.7 1023.5 0.0
01/08:00am 9.3 8.2 5.1 75 1.9 CALM 0 2 0 1 1023.3 1023.1 0.0
01/07:30am 6.5 4.5 4.3 86 1.0 NW 4 4 2 2 1022.8 1022.5 0.0
01/07:00am 4.5 2.5 2.4 86 0.9 W 2 2 1 1 1022.4 1022.1 0.0
01/06:30am 4.4 1.6 2.1 85 0.9 WNW 6 6 3 3 1022.2 1021.9 0.0
01/06:00am 4.9 3.3 2.6 85 0.9 CALM 0 0 0 0 1021.8 1021.5 0.0
01/05:30am 5.5 4.0 2.8 83 1.1 CALM 0 0 0 0 1021.5 1021.2 0.0
01/05:00am 6.7 4.9 3.5 80 1.4 NNE 2 4 1 2 1021.5 1021.2 0.0
01/04:30am 6.2 4.0 3.4 82 1.2 NW 4 6 2 3 1021.3 1021.0 0.0
01/04:00am 6.5 4.2 2.8 77 1.6 W 4 6 2 3 1021.3 1021.0 0.0
01/03:30am 6.7 4.1 3.1 78 1.5 WNW 6 6 3 3 1021.3 1021.0 0.0
01/03:00am 6.8 4.6 3.1 77 1.6 WNW 4 6 2 3 1021.4 1021.1 0.0
01/02:30am 8.8 7.2 4.6 75 1.9 W 2 4 1 2 1021.4 1021.1 0.0
01/02:00am 8.3 6.2 3.9 74 1.9 N 4 7 2 4 1021.6 1021.3 0.0
01/01:30am 8.3 6.2 3.8 73 2.0 W 4 4 2 2 1021.5 1021.2 0.0
01/01:00am 9.5 8.0 5.1 74 2.0 W 2 4 1 2 1021.7 1021.4 0.0
01/12:30am 8.1 5.6 3.6 73 2.0 W 6 6 3 3 1021.7 1021.4 0.0
01/12:00am 8.8 6.7 3.8 71 2.2 WNW 4 4 2 2 1021.7 1021.4 0.0
 
Date/Time
EST
Temp
°C
App
Temp
°C
Dew
Point
Rel
Hum
%
Delta-T
°C
Wind Press
QNH
hPa
Press
MSL
hPa
Rain
since 9 am
mm
Dir
 
Spd
km/h
Gust
km/h
Spd
kts
Gust
kts
31/11:30pm 9.0 6.9 3.8 70 2.3 WSW 4 6 2 3 1021.8 1021.5 0.0
31/11:00pm 9.8 7.7 4.0 67 2.6 WNW 4 6 2 3 1021.9 1021.6 0.0
31/10:30pm 10.7 8.7 4.2 64 2.9 NW 4 4 2 2 1022.0 1021.7 0.0
31/10:00pm 11.4 9.4 4.4 62 3.2 NW 4 6 2 3 1021.9 1021.6 0.0
31/09:30pm 11.9 9.6 4.9 62 3.3 WNW 6 6 3 3 1021.9 1021.6 0.0
31/09:00pm 13.0 11.9 4.9 58 3.8 CALM 0 0 0 0 1021.8 1021.5 0.0
31/08:30pm 13.3 12.1 4.5 55 4.1 CALM 0 0 0 0 1021.7 1021.4 0.0
31/08:00pm 14.3 13.3 5.4 55 4.2 CALM 0 0 0 0 1021.6 1021.3 0.0
31/07:30pm 16.6 15.2 5.6 48 5.4 N 2 4 1 2 1021.2 1020.9 0.0
31/07:00pm 17.1 15.5 4.4 43 6.1 NNE 2 4 1 2 1020.8 1020.5 0.0
31/06:30pm 20.4 18.2 5.2 37 7.6 NNE 6 6 3 3 1020.5 1020.2 0.0
31/06:00pm 21.1 18.9 5.1 35 8.0 NE 6 7 3 4 1020.2 1019.9 0.0
31/05:30pm 22.8 21.6 4.8 31 9.0 CALM 0 0 0 0 1019.9 1019.7 0.0
31/05:00pm 23.8 21.9 4.7 29 9.6 E 4 7 2 4 1020.1 1019.8 0.0
31/04:30pm 24.7 23.2 5.0 28 10.0 S 2 6 1 3 1019.8 1019.5 0.0
31/04:00pm 24.7 22.5 5.5 29 9.9 NNE 6 9 3 5 1019.8 1019.5 0.0
31/03:30pm 25.1 23.3 5.3 28 10.2 NNE 4 11 2 6 1020.1 1019.8 0.0
31/03:00pm 24.9 22.8 5.7 29 9.9 ESE 6 13 3 7 1020.5 1020.2 0.0
31/02:30pm 24.9 22.9 6.1 30 9.8 SSW 6 9 3 5 1020.9 1020.6 0.0
31/02:00pm 24.4 22.1 5.7 30 9.6 SE 7 15 4 8 1021.3 1021.0 0.0
31/01:30pm 23.9 21.9 6.2 32 9.2 SW 6 11 3 6 1021.8 1021.5 0.0
31/01:00pm 23.9 21.8 6.7 33 9.0 NNE 7 13 4 7 1022.4 1022.1 0.0
31/12:30pm 23.9 22.0 7.5 35 8.7 NNW 7 13 4 7 1023.0 1022.7 0.0
31/12:00pm 22.8 20.9 6.6 35 8.4 N 6 11 3 6 1023.5 1023.3 0.0
31/11:30am 22.5 20.8 8.2 40 7.6 NE 7 13 4 7 1023.8 1023.6 0.0
31/11:00am 21.4 19.5 9.0 45 6.6 NNE 9 15 5 8 1024.4 1024.1 0.0
31/10:30am 20.6 18.4 9.2 48 6.1 N 11 17 6 9 1024.8 1024.5 0.0
31/10:00am 19.3 18.0 9.8 54 5.1 N 7 13 4 7 1025.0 1024.7 0.0
31/09:30am 19.0 17.9 10.0 56 4.9 ESE 6 7 3 4 1025.2 1024.9 0.0
31/09:00am 16.0 14.6 8.7 62 3.8 E 6 9 3 5 1025.0 1024.7 0.0
31/08:30am 12.0 11.2 6.3 68 2.7 CALM 0 0 0 0 1025.0 1024.7 0.0
31/08:00am 9.5 8.1 5.3 75 1.9 W 2 4 1 2 1024.8 1024.5 0.0
31/07:30am 7.3 5.9 5.3 87 0.9 WNW 2 2 1 1 1024.5 1024.2 0.0
31/07:00am 5.0 3.1 3.0 87 0.8 W 2 4 1 2 1024.2 1023.9 0.0
31/06:30am 5.1 3.6 3.0 86 0.9 CALM 0 0 0 0 1023.6 1023.4 0.0
31/06:00am 6.0 4.6 3.5 84 1.1 CALM 0 2 0 1 1023.2 1023.0 0.0
31/05:30am 5.9 3.8 3.7 86 0.9 NW 4 4 2 2 1022.7 1022.4 0.0
31/05:00am 5.8 3.6 3.3 84 1.1 W 4 6 2 3 1022.7 1022.4 0.0
31/04:30am 6.0 3.3 3.8 86 0.9 WNW 7 7 4 4 1022.5 1022.2 0.0
31/04:00am 5.7 4.2 3.0 83 1.1 CALM 0 4 0 2 1022.6 1022.3 0.0
31/03:30am 6.7 5.3 3.3 79 1.5 CALM 0 0 0 0 1022.4 1022.1 0.0
31/03:00am 8.0 6.9 4.9 81 1.4 CALM 0 2 0 1 1022.5 1022.2 0.0
31/02:30am 7.4 6.0 3.6 77 1.6 CALM 0 0 0 0 1022.6 1022.3 0.0
31/02:00am 8.6 7.4 4.6 76 1.8 CALM 0 0 0 0 1022.8 1022.5 0.0
31/01:30am 8.8 7.0 5.2 78 1.6 NW 4 4 2 2 1023.2 1023.0 0.0
31/01:00am 8.8 7.8 5.4 79 1.5 CALM 0 2 0 1 1023.2 1023.0 0.0
31/12:30am 7.5 5.7 3.4 75 1.8 SSE 2 4 1 2 1023.4 1023.2 0.0
31/12:00am 9.3 8.0 4.1 70 2.3 CALM 0 0 0 0 1023.5 1023.3 0.0
 
Date/Time
EST
Temp
°C
App
Temp
°C
Dew
Point
Rel
Hum
%
Delta-T
°C
Wind Press
QNH
hPa
Press
MSL
hPa
Rain
since 9 am
mm
Dir
 
Spd
km/h
Gust
km/h
Spd
kts
Gust
kts
30/11:30pm 9.5 7.6 4.9 73 2.1 NW 4 6 2 3 1023.8 1023.6 0.0
30/11:00pm 9.7 7.7 4.5 70 2.3 WNW 4 6 2 3 1024.2 1023.9 0.0
30/10:30pm 10.0 7.6 4.2 67 2.6 WNW 6 7 3 4 1024.2 1023.9 0.0
30/10:00pm 11.7 10.0 5.8 67 2.8 NW 4 4 2 2 1024.3 1024.0 0.0
30/09:30pm 11.4 9.6 5.3 66 2.8 WNW 4 6 2 3 1024.1 1023.8 0.0
30/09:00pm 12.3 11.3 5.5 63 3.2 CALM 0 0 0 0 1023.8 1023.6 0.0
30/08:30pm 12.9 11.9 5.6 61 3.5 CALM 0 0 0 0 1023.6 1023.4 0.0
30/08:00pm 14.4 13.6 6.5 59 3.9 CALM 0 0 0 0 1023.6 1023.4 0.0
30/07:30pm 14.4 13.4 5.7 56 4.2 CALM 0 0 0 0 1023.3 1023.1 0.0
30/07:00pm 17.1 16.4 6.9 51 5.1 CALM 0 2 0 1 1023.0 1022.7 0.0

Other Formats:

Comma delimited format used in spreadsheet applications
http://www.bom.gov.au/fwo/IDQ60801/IDQ60801.94399.axf

JavaScript Object Notation format (JSON) in row-major order
http://www.bom.gov.au/fwo/IDQ60801/IDQ60801.94399.json